sensor_id;sensor_type;location;lat;lon;timestamp;P1;durP1;ratioP1;P2;durP2;ratioP2
42866;SDS011;39461;40.948;73.006;2022-10-16T00:00:51;13.35;;;6.80;;
42866;SDS011;39461;40.948;73.006;2022-10-16T00:03:27;15.73;;;6.82;;
42866;SDS011;39461;40.948;73.006;2022-10-16T00:06:02;21.02;;;6.60;;
42866;SDS011;39461;40.948;73.006;2022-10-16T00:11:37;17.17;;;7.32;;
42866;SDS011;39461;40.948;73.006;2022-10-16T00:14:13;14.70;;;6.70;;
42866;SDS011;39461;40.948;73.006;2022-10-16T00:16:48;17.60;;;7.50;;
42866;SDS011;39461;40.948;73.006;2022-10-16T00:19:28;18.52;;;7.68;;
42866;SDS011;39461;40.948;73.006;2022-10-16T00:22:01;12.27;;;7.55;;
42866;SDS011;39461;40.948;73.006;2022-10-16T00:24:34;12.40;;;6.60;;
42866;SDS011;39461;40.948;73.006;2022-10-16T00:27:03;14.30;;;6.75;;
42866;SDS011;39461;40.948;73.006;2022-10-16T00:29:36;15.32;;;6.40;;
42866;SDS011;39461;40.948;73.006;2022-10-16T00:32:10;20.23;;;7.22;;
42866;SDS011;39461;40.948;73.006;2022-10-16T00:34:43;18.55;;;6.75;;
42866;SDS011;39461;40.948;73.006;2022-10-16T00:37:23;16.35;;;7.55;;
42866;SDS011;39461;40.948;73.006;2022-10-16T00:40:03;19.20;;;7.00;;
42866;SDS011;39461;40.948;73.006;2022-10-16T00:42:36;22.38;;;7.13;;
42866;SDS011;39461;40.948;73.006;2022-10-16T00:45:10;18.63;;;6.38;;
42866;SDS011;39461;40.948;73.006;2022-10-16T00:47:49;14.73;;;6.32;;
42866;SDS011;39461;40.948;73.006;2022-10-16T00:50:27;20.90;;;6.55;;
42866;SDS011;39461;40.948;73.006;2022-10-16T00:53:03;17.63;;;9.88;;
42866;SDS011;39461;40.948;73.006;2022-10-16T00:55:38;26.10;;;12.23;;
42866;SDS011;39461;40.948;73.006;2022-10-16T00:58:11;17.92;;;8.23;;
42866;SDS011;39461;40.948;73.006;2022-10-16T01:00:45;14.70;;;6.57;;
42866;SDS011;39461;40.948;73.006;2022-10-16T01:03:30;18.88;;;8.05;;
42866;SDS011;39461;40.948;73.006;2022-10-16T01:08:47;19.88;;;7.30;;
42866;SDS011;39461;40.948;73.006;2022-10-16T01:11:33;22.67;;;7.93;;
42866;SDS011;39461;40.948;73.006;2022-10-16T01:17:18;14.57;;;6.70;;
42866;SDS011;39461;40.948;73.006;2022-10-16T01:23:04;21.58;;;7.15;;
42866;SDS011;39461;40.948;73.006;2022-10-16T01:28:43;18.52;;;6.70;;
42866;SDS011;39461;40.948;73.006;2022-10-16T01:31:20;16.58;;;6.95;;
42866;SDS011;39461;40.948;73.006;2022-10-16T01:33:59;19.50;;;8.05;;
42866;SDS011;39461;40.948;73.006;2022-10-16T01:36:47;18.80;;;8.43;;
42866;SDS011;39461;40.948;73.006;2022-10-16T01:39:29;18.85;;;8.10;;
42866;SDS011;39461;40.948;73.006;2022-10-16T01:42:05;22.85;;;7.68;;
42866;SDS011;39461;40.948;73.006;2022-10-16T01:44:39;18.30;;;7.70;;
42866;SDS011;39461;40.948;73.006;2022-10-16T01:47:13;21.25;;;7.25;;
42866;SDS011;39461;40.948;73.006;2022-10-16T01:49:47;19.35;;;7.30;;
42866;SDS011;39461;40.948;73.006;2022-10-16T01:52:23;22.60;;;8.60;;
42866;SDS011;39461;40.948;73.006;2022-10-16T01:57:57;31.50;;;8.80;;
42866;SDS011;39461;40.948;73.006;2022-10-16T02:00:32;25.60;;;9.13;;
42866;SDS011;39461;40.948;73.006;2022-10-16T02:03:06;22.48;;;9.43;;
42866;SDS011;39461;40.948;73.006;2022-10-16T02:05:44;20.70;;;9.82;;
42866;SDS011;39461;40.948;73.006;2022-10-16T02:08:18;30.30;;;8.70;;
42866;SDS011;39461;40.948;73.006;2022-10-16T02:10:57;28.80;;;11.80;;
42866;SDS011;39461;40.948;73.006;2022-10-16T02:13:37;30.30;;;11.32;;
42866;SDS011;39461;40.948;73.006;2022-10-16T02:16:13;33.08;;;14.57;;
42866;SDS011;39461;40.948;73.006;2022-10-16T02:18:48;40.40;;;19.27;;
42866;SDS011;39461;40.948;73.006;2022-10-16T02:21:25;61.60;;;22.92;;
42866;SDS011;39461;40.948;73.006;2022-10-16T02:24:11;44.22;;;18.95;;
42866;SDS011;39461;40.948;73.006;2022-10-16T02:26:45;55.92;;;18.05;;
42866;SDS011;39461;40.948;73.006;2022-10-16T02:29:22;40.30;;;13.85;;
42866;SDS011;39461;40.948;73.006;2022-10-16T02:31:58;29.55;;;14.40;;
42866;SDS011;39461;40.948;73.006;2022-10-16T02:34:35;31.27;;;15.32;;
42866;SDS011;39461;40.948;73.006;2022-10-16T02:37:09;48.38;;;17.15;;
42866;SDS011;39461;40.948;73.006;2022-10-16T02:39:42;45.90;;;17.85;;
42866;SDS011;39461;40.948;73.006;2022-10-16T02:42:17;42.95;;;17.38;;
42866;SDS011;39461;40.948;73.006;2022-10-16T02:44:50;48.67;;;17.77;;
42866;SDS011;39461;40.948;73.006;2022-10-16T02:47:23;56.85;;;18.40;;
42866;SDS011;39461;40.948;73.006;2022-10-16T02:49:56;53.53;;;18.48;;
42866;SDS011;39461;40.948;73.006;2022-10-16T02:52:36;61.55;;;22.23;;
42866;SDS011;39461;40.948;73.006;2022-10-16T02:55:11;70.22;;;25.02;;
42866;SDS011;39461;40.948;73.006;2022-10-16T02:57:46;65.55;;;21.80;;
42866;SDS011;39461;40.948;73.006;2022-10-16T03:00:21;58.92;;;21.10;;
42866;SDS011;39461;40.948;73.006;2022-10-16T03:02:56;56.28;;;15.93;;
42866;SDS011;39461;40.948;73.006;2022-10-16T03:05:32;38.92;;;14.15;;
42866;SDS011;39461;40.948;73.006;2022-10-16T03:08:05;31.15;;;12.93;;
42866;SDS011;39461;40.948;73.006;2022-10-16T03:10:38;24.52;;;11.85;;
42866;SDS011;39461;40.948;73.006;2022-10-16T03:13:13;38.80;;;13.90;;
42866;SDS011;39461;40.948;73.006;2022-10-16T03:15:48;45.90;;;15.55;;
42866;SDS011;39461;40.948;73.006;2022-10-16T03:18:22;41.50;;;16.55;;
42866;SDS011;39461;40.948;73.006;2022-10-16T03:21:02;45.72;;;16.00;;
42866;SDS011;39461;40.948;73.006;2022-10-16T03:23:37;38.45;;;15.88;;
42866;SDS011;39461;40.948;73.006;2022-10-16T03:26:12;55.42;;;17.48;;
42866;SDS011;39461;40.948;73.006;2022-10-16T03:28:47;52.90;;;17.23;;
42866;SDS011;39461;40.948;73.006;2022-10-16T03:31:23;49.47;;;18.30;;
42866;SDS011;39461;40.948;73.006;2022-10-16T03:33:56;46.90;;;18.85;;
42866;SDS011;39461;40.948;73.006;2022-10-16T03:36:29;61.42;;;22.20;;
42866;SDS011;39461;40.948;73.006;2022-10-16T03:39:04;48.65;;;20.45;;
42866;SDS011;39461;40.948;73.006;2022-10-16T03:41:40;49.40;;;17.95;;
42866;SDS011;39461;40.948;73.006;2022-10-16T03:47:13;57.13;;;20.65;;
42866;SDS011;39461;40.948;73.006;2022-10-16T03:52:47;57.67;;;18.67;;
42866;SDS011;39461;40.948;73.006;2022-10-16T03:55:22;44.20;;;17.52;;
42866;SDS011;39461;40.948;73.006;2022-10-16T03:57:57;38.40;;;18.17;;
42866;SDS011;39461;40.948;73.006;2022-10-16T04:00:30;57.70;;;22.20;;
42866;SDS011;39461;40.948;73.006;2022-10-16T04:03:04;41.15;;;18.17;;
42866;SDS011;39461;40.948;73.006;2022-10-16T04:05:39;43.00;;;17.52;;
42866;SDS011;39461;40.948;73.006;2022-10-16T04:08:14;40.22;;;15.82;;
42866;SDS011;39461;40.948;73.006;2022-10-16T04:10:49;43.22;;;15.57;;
42866;SDS011;39461;40.948;73.006;2022-10-16T04:13:24;35.35;;;13.48;;
42866;SDS011;39461;40.948;73.006;2022-10-16T04:15:59;37.72;;;10.98;;
42866;SDS011;39461;40.948;73.006;2022-10-16T04:18:35;34.75;;;11.48;;
42866;SDS011;39461;40.948;73.006;2022-10-16T04:21:11;33.47;;;13.10;;
42866;SDS011;39461;40.948;73.006;2022-10-16T04:23:44;51.65;;;20.17;;
42866;SDS011;39461;40.948;73.006;2022-10-16T04:26:11;114.32;;;45.88;;
42866;SDS011;39461;40.948;73.006;2022-10-16T04:28:44;65.95;;;27.60;;
42866;SDS011;39461;40.948;73.006;2022-10-16T04:31:17;59.53;;;23.48;;
42866;SDS011;39461;40.948;73.006;2022-10-16T04:33:50;45.55;;;17.38;;
42866;SDS011;39461;40.948;73.006;2022-10-16T04:36:24;38.25;;;16.58;;
42866;SDS011;39461;40.948;73.006;2022-10-16T04:38:59;37.65;;;13.20;;
42866;SDS011;39461;40.948;73.006;2022-10-16T04:41:32;35.42;;;12.13;;
42866;SDS011;39461;40.948;73.006;2022-10-16T04:44:07;36.83;;;11.98;;
42866;SDS011;39461;40.948;73.006;2022-10-16T04:46:42;35.60;;;12.32;;
42866;SDS011;39461;40.948;73.006;2022-10-16T04:49:18;30.73;;;12.18;;
42866;SDS011;39461;40.948;73.006;2022-10-16T04:54:52;34.08;;;13.70;;
42866;SDS011;39461;40.948;73.006;2022-10-16T04:57:32;35.40;;;13.98;;
42866;SDS011;39461;40.948;73.006;2022-10-16T05:00:05;26.35;;;13.38;;
42866;SDS011;39461;40.948;73.006;2022-10-16T05:02:39;31.67;;;13.77;;
42866;SDS011;39461;40.948;73.006;2022-10-16T05:05:19;33.17;;;12.77;;
42866;SDS011;39461;40.948;73.006;2022-10-16T05:07:52;25.13;;;11.07;;
42866;SDS011;39461;40.948;73.006;2022-10-16T05:10:25;32.63;;;12.10;;
42866;SDS011;39461;40.948;73.006;2022-10-16T05:12:58;28.70;;;12.35;;
42866;SDS011;39461;40.948;73.006;2022-10-16T05:15:38;35.15;;;9.57;;
42866;SDS011;39461;40.948;73.006;2022-10-16T05:18:11;27.55;;;10.35;;
42866;SDS011;39461;40.948;73.006;2022-10-16T05:20:44;33.55;;;13.90;;
42866;SDS011;39461;40.948;73.006;2022-10-16T05:23:17;25.40;;;12.68;;
42866;SDS011;39461;40.948;73.006;2022-10-16T05:25:56;27.55;;;10.20;;
42866;SDS011;39461;40.948;73.006;2022-10-16T05:28:34;22.08;;;8.85;;
42866;SDS011;39461;40.948;73.006;2022-10-16T05:31:07;23.92;;;9.63;;
42866;SDS011;39461;40.948;73.006;2022-10-16T05:33:41;24.13;;;10.27;;
42866;SDS011;39461;40.948;73.006;2022-10-16T05:36:16;20.38;;;10.75;;
42866;SDS011;39461;40.948;73.006;2022-10-16T05:38:50;28.50;;;12.18;;
42866;SDS011;39461;40.948;73.006;2022-10-16T05:41:25;32.22;;;13.95;;
42866;SDS011;39461;40.948;73.006;2022-10-16T05:43:58;39.58;;;14.55;;
42866;SDS011;39461;40.948;73.006;2022-10-16T05:46:32;36.80;;;14.80;;
42866;SDS011;39461;40.948;73.006;2022-10-16T05:49:05;35.60;;;12.35;;
42866;SDS011;39461;40.948;73.006;2022-10-16T05:51:38;45.88;;;20.13;;
42866;SDS011;39461;40.948;73.006;2022-10-16T05:54:12;32.30;;;16.02;;
42866;SDS011;39461;40.948;73.006;2022-10-16T05:56:46;31.48;;;14.20;;
42866;SDS011;39461;40.948;73.006;2022-10-16T05:59:19;43.10;;;20.35;;
42866;SDS011;39461;40.948;73.006;2022-10-16T06:01:48;30.45;;;17.00;;
42866;SDS011;39461;40.948;73.006;2022-10-16T06:04:24;43.05;;;18.95;;
42866;SDS011;39461;40.948;73.006;2022-10-16T06:06:59;42.70;;;19.73;;
42866;SDS011;39461;40.948;73.006;2022-10-16T06:09:34;40.72;;;18.90;;
42866;SDS011;39461;40.948;73.006;2022-10-16T06:12:09;41.65;;;19.83;;
42866;SDS011;39461;40.948;73.006;2022-10-16T06:14:36;48.30;;;21.98;;
42866;SDS011;39461;40.948;73.006;2022-10-16T06:17:12;44.97;;;18.35;;
42866;SDS011;39461;40.948;73.006;2022-10-16T06:19:47;39.70;;;17.42;;
42866;SDS011;39461;40.948;73.006;2022-10-16T06:22:20;27.67;;;14.15;;
42866;SDS011;39461;40.948;73.006;2022-10-16T06:24:55;31.40;;;13.93;;
42866;SDS011;39461;40.948;73.006;2022-10-16T06:27:25;25.67;;;12.75;;
42866;SDS011;39461;40.948;73.006;2022-10-16T06:29:58;30.83;;;11.90;;
42866;SDS011;39461;40.948;73.006;2022-10-16T06:32:31;34.95;;;12.45;;
42866;SDS011;39461;40.948;73.006;2022-10-16T06:35:04;29.38;;;14.50;;
42866;SDS011;39461;40.948;73.006;2022-10-16T06:37:37;31.27;;;15.82;;
42866;SDS011;39461;40.948;73.006;2022-10-16T06:40:11;26.48;;;12.77;;
42866;SDS011;39461;40.948;73.006;2022-10-16T06:42:46;31.27;;;11.80;;
42866;SDS011;39461;40.948;73.006;2022-10-16T06:45:19;35.60;;;13.15;;
42866;SDS011;39461;40.948;73.006;2022-10-16T06:47:56;32.55;;;13.80;;
42866;SDS011;39461;40.948;73.006;2022-10-16T06:50:31;26.42;;;11.82;;
42866;SDS011;39461;40.948;73.006;2022-10-16T06:53:07;27.33;;;10.57;;
42866;SDS011;39461;40.948;73.006;2022-10-16T06:55:42;29.50;;;11.05;;
42866;SDS011;39461;40.948;73.006;2022-10-16T06:58:17;27.05;;;10.40;;
42866;SDS011;39461;40.948;73.006;2022-10-16T07:00:56;19.98;;;9.27;;
42866;SDS011;39461;40.948;73.006;2022-10-16T07:03:37;22.83;;;10.43;;
42866;SDS011;39461;40.948;73.006;2022-10-16T07:06:13;21.20;;;10.35;;
42866;SDS011;39461;40.948;73.006;2022-10-16T07:08:47;22.50;;;8.73;;
42866;SDS011;39461;40.948;73.006;2022-10-16T07:11:24;16.45;;;8.88;;
42866;SDS011;39461;40.948;73.006;2022-10-16T07:13:59;21.17;;;9.73;;
42866;SDS011;39461;40.948;73.006;2022-10-16T07:19:33;22.98;;;9.30;;
42866;SDS011;39461;40.948;73.006;2022-10-16T07:22:08;19.65;;;8.70;;
42866;SDS011;39461;40.948;73.006;2022-10-16T07:24:43;18.80;;;8.85;;
42866;SDS011;39461;40.948;73.006;2022-10-16T07:27:19;20.20;;;8.43;;
42866;SDS011;39461;40.948;73.006;2022-10-16T07:29:55;22.83;;;7.72;;
42866;SDS011;39461;40.948;73.006;2022-10-16T07:32:28;24.02;;;9.30;;
42866;SDS011;39461;40.948;73.006;2022-10-16T07:35:01;24.50;;;9.57;;
42866;SDS011;39461;40.948;73.006;2022-10-16T07:37:35;27.42;;;9.95;;
42866;SDS011;39461;40.948;73.006;2022-10-16T07:40:10;20.90;;;10.27;;
42866;SDS011;39461;40.948;73.006;2022-10-16T07:42:43;21.40;;;9.60;;
42866;SDS011;39461;40.948;73.006;2022-10-16T07:45:16;30.50;;;10.85;;
42866;SDS011;39461;40.948;73.006;2022-10-16T07:47:49;22.98;;;10.85;;
42866;SDS011;39461;40.948;73.006;2022-10-16T07:50:22;23.48;;;10.13;;
42866;SDS011;39461;40.948;73.006;2022-10-16T07:52:55;23.58;;;10.35;;
42866;SDS011;39461;40.948;73.006;2022-10-16T07:55:28;23.15;;;10.93;;
42866;SDS011;39461;40.948;73.006;2022-10-16T07:58:02;28.33;;;15.13;;
42866;SDS011;39461;40.948;73.006;2022-10-16T08:00:36;34.75;;;14.55;;
42866;SDS011;39461;40.948;73.006;2022-10-16T08:03:09;31.40;;;17.73;;
42866;SDS011;39461;40.948;73.006;2022-10-16T08:05:42;45.67;;;24.90;;
42866;SDS011;39461;40.948;73.006;2022-10-16T08:08:16;41.08;;;18.20;;
42866;SDS011;39461;40.948;73.006;2022-10-16T08:10:51;30.25;;;16.75;;
42866;SDS011;39461;40.948;73.006;2022-10-16T08:13:26;21.23;;;11.48;;
42866;SDS011;39461;40.948;73.006;2022-10-16T08:16:02;31.58;;;12.73;;
42866;SDS011;39461;40.948;73.006;2022-10-16T08:18:41;30.67;;;11.27;;
42866;SDS011;39461;40.948;73.006;2022-10-16T08:21:16;29.48;;;10.70;;
42866;SDS011;39461;40.948;73.006;2022-10-16T08:23:53;23.80;;;11.05;;
42866;SDS011;39461;40.948;73.006;2022-10-16T08:26:25;19.10;;;10.95;;
42866;SDS011;39461;40.948;73.006;2022-10-16T08:28:58;28.40;;;11.82;;
42866;SDS011;39461;40.948;73.006;2022-10-16T08:31:33;32.63;;;13.40;;
42866;SDS011;39461;40.948;73.006;2022-10-16T08:34:09;29.80;;;13.80;;
42866;SDS011;39461;40.948;73.006;2022-10-16T08:36:42;29.08;;;12.48;;
42866;SDS011;39461;40.948;73.006;2022-10-16T08:39:15;24.40;;;11.57;;
42866;SDS011;39461;40.948;73.006;2022-10-16T08:42:06;29.27;;;13.18;;
42866;SDS011;39461;40.948;73.006;2022-10-16T08:47:45;25.05;;;11.57;;
42866;SDS011;39461;40.948;73.006;2022-10-16T08:50:26;32.78;;;11.43;;
42866;SDS011;39461;40.948;73.006;2022-10-16T08:53:00;25.90;;;10.13;;
42866;SDS011;39461;40.948;73.006;2022-10-16T08:55:37;28.83;;;11.25;;
42866;SDS011;39461;40.948;73.006;2022-10-16T08:58:15;27.13;;;11.05;;
42866;SDS011;39461;40.948;73.006;2022-10-16T09:00:55;26.10;;;11.63;;
42866;SDS011;39461;40.948;73.006;2022-10-16T09:03:44;27.77;;;12.93;;
42866;SDS011;39461;40.948;73.006;2022-10-16T09:22:47;27.33;;;10.57;;
42866;SDS011;39461;40.948;73.006;2022-10-16T09:25:23;28.75;;;10.60;;
42866;SDS011;39461;40.948;73.006;2022-10-16T09:27:58;27.83;;;11.18;;
42866;SDS011;39461;40.948;73.006;2022-10-16T09:30:33;30.10;;;11.43;;
42866;SDS011;39461;40.948;73.006;2022-10-16T09:33:09;34.72;;;11.82;;
42866;SDS011;39461;40.948;73.006;2022-10-16T09:38:45;35.72;;;12.60;;
42866;SDS011;39461;40.948;73.006;2022-10-16T09:41:26;36.78;;;17.05;;
42866;SDS011;39461;40.948;73.006;2022-10-16T09:44:03;50.55;;;25.80;;
42866;SDS011;39461;40.948;73.006;2022-10-16T09:46:47;44.58;;;19.40;;
42866;SDS011;39461;40.948;73.006;2022-10-16T09:52:31;39.30;;;14.05;;
42866;SDS011;39461;40.948;73.006;2022-10-16T09:55:15;34.83;;;15.13;;
42866;SDS011;39461;40.948;73.006;2022-10-16T09:57:54;34.15;;;13.93;;
42866;SDS011;39461;40.948;73.006;2022-10-16T10:00:36;45.42;;;17.25;;
42866;SDS011;39461;40.948;73.006;2022-10-16T10:03:23;44.92;;;18.15;;
42866;SDS011;39461;40.948;73.006;2022-10-16T10:06:20;42.13;;;19.83;;
42866;SDS011;39461;40.948;73.006;2022-10-16T10:12:01;45.42;;;18.13;;
42866;SDS011;39461;40.948;73.006;2022-10-16T10:14:43;48.72;;;18.05;;
42866;SDS011;39461;40.948;73.006;2022-10-16T10:17:24;98.80;;;36.00;;
42866;SDS011;39461;40.948;73.006;2022-10-16T10:23:01;59.15;;;31.35;;
42866;SDS011;39461;40.948;73.006;2022-10-16T10:28:35;64.10;;;25.05;;
42866;SDS011;39461;40.948;73.006;2022-10-16T10:40:00;57.40;;;25.25;;
42866;SDS011;39461;40.948;73.006;2022-10-16T10:42:58;53.75;;;25.13;;
42866;SDS011;39461;40.948;73.006;2022-10-16T10:45:46;52.00;;;24.48;;
42866;SDS011;39461;40.948;73.006;2022-10-16T10:48:28;57.13;;;26.88;;
42866;SDS011;39461;40.948;73.006;2022-10-16T10:51:11;46.75;;;24.70;;
42866;SDS011;39461;40.948;73.006;2022-10-16T10:54:00;73.40;;;28.02;;
42866;SDS011;39461;40.948;73.006;2022-10-16T10:56:51;81.95;;;27.38;;
42866;SDS011;39461;40.948;73.006;2022-10-16T10:59:53;68.95;;;29.23;;
42866;SDS011;39461;40.948;73.006;2022-10-16T11:08:16;65.82;;;30.92;;
42866;SDS011;39461;40.948;73.006;2022-10-16T11:10:58;73.75;;;33.08;;
42866;SDS011;39461;40.948;73.006;2022-10-16T11:25:30;86.50;;;42.20;;
42866;SDS011;39461;40.948;73.006;2022-10-16T11:28:14;81.47;;;42.47;;
42866;SDS011;39461;40.948;73.006;2022-10-16T11:34:02;88.07;;;42.80;;
42866;SDS011;39461;40.948;73.006;2022-10-16T11:36:52;81.95;;;47.60;;
42866;SDS011;39461;40.948;73.006;2022-10-16T11:39:39;94.80;;;45.70;;
42866;SDS011;39461;40.948;73.006;2022-10-16T11:42:18;92.35;;;49.10;;
42866;SDS011;39461;40.948;73.006;2022-10-16T11:45:00;95.82;;;48.95;;
42866;SDS011;39461;40.948;73.006;2022-10-16T11:50:42;94.68;;;48.47;;
42866;SDS011;39461;40.948;73.006;2022-10-16T11:53:34;93.53;;;46.90;;
42866;SDS011;39461;40.948;73.006;2022-10-16T11:56:12;96.30;;;45.70;;
42866;SDS011;39461;40.948;73.006;2022-10-16T12:01:33;101.20;;;46.92;;
42866;SDS011;39461;40.948;73.006;2022-10-16T12:07:19;123.30;;;68.68;;
42866;SDS011;39461;40.948;73.006;2022-10-16T12:09:58;118.70;;;61.17;;
42866;SDS011;39461;40.948;73.006;2022-10-16T12:12:46;113.55;;;62.47;;
42866;SDS011;39461;40.948;73.006;2022-10-16T12:15:31;124.68;;;63.72;;
42866;SDS011;39461;40.948;73.006;2022-10-16T12:18:07;127.22;;;63.63;;
42866;SDS011;39461;40.948;73.006;2022-10-16T12:20:58;140.18;;;69.10;;
42866;SDS011;39461;40.948;73.006;2022-10-16T12:23:48;127.43;;;67.10;;
42866;SDS011;39461;40.948;73.006;2022-10-16T12:26:28;143.38;;;71.00;;
42866;SDS011;39461;40.948;73.006;2022-10-16T12:31:53;161.18;;;70.50;;
42866;SDS011;39461;40.948;73.006;2022-10-16T12:34:36;144.38;;;74.53;;
42866;SDS011;39461;40.948;73.006;2022-10-16T12:37:15;153.18;;;72.03;;
42866;SDS011;39461;40.948;73.006;2022-10-16T12:39:47;160.68;;;77.03;;
42866;SDS011;39461;40.948;73.006;2022-10-16T12:45:21;158.30;;;78.10;;
42866;SDS011;39461;40.948;73.006;2022-10-16T12:48:00;177.80;;;87.65;;
42866;SDS011;39461;40.948;73.006;2022-10-16T12:50:38;173.02;;;84.68;;
42866;SDS011;39461;40.948;73.006;2022-10-16T12:53:20;179.80;;;84.68;;
42866;SDS011;39461;40.948;73.006;2022-10-16T13:04:20;162.23;;;68.35;;
42866;SDS011;39461;40.948;73.006;2022-10-16T13:20:54;110.20;;;50.83;;
42866;SDS011;39461;40.948;73.006;2022-10-16T13:29:05;104.63;;;46.22;;
42866;SDS011;39461;40.948;73.006;2022-10-16T13:31:40;115.32;;;47.25;;
42866;SDS011;39461;40.948;73.006;2022-10-16T13:34:18;110.68;;;48.35;;
42866;SDS011;39461;40.948;73.006;2022-10-16T13:36:56;93.70;;;45.85;;
42866;SDS011;39461;40.948;73.006;2022-10-16T13:45:29;84.15;;;44.17;;
42866;SDS011;39461;40.948;73.006;2022-10-16T13:48:08;102.88;;;48.70;;
42866;SDS011;39461;40.948;73.006;2022-10-16T13:53:47;111.30;;;47.28;;
42866;SDS011;39461;40.948;73.006;2022-10-16T13:59:26;105.90;;;47.83;;
42866;SDS011;39461;40.948;73.006;2022-10-16T14:02:14;116.25;;;51.10;;
42866;SDS011;39461;40.948;73.006;2022-10-16T14:04:49;105.38;;;48.28;;
42866;SDS011;39461;40.948;73.006;2022-10-16T14:07:26;103.60;;;48.45;;
42866;SDS011;39461;40.948;73.006;2022-10-16T14:10:06;125.25;;;51.45;;
42866;SDS011;39461;40.948;73.006;2022-10-16T14:12:40;122.40;;;48.15;;
42866;SDS011;39461;40.948;73.006;2022-10-16T14:15:17;113.80;;;49.83;;
42866;SDS011;39461;40.948;73.006;2022-10-16T14:17:54;118.78;;;51.45;;
42866;SDS011;39461;40.948;73.006;2022-10-16T14:20:24;114.57;;;53.45;;
42866;SDS011;39461;40.948;73.006;2022-10-16T14:23:03;124.07;;;53.20;;
42866;SDS011;39461;40.948;73.006;2022-10-16T14:25:41;105.78;;;48.22;;
42866;SDS011;39461;40.948;73.006;2022-10-16T14:30:58;85.25;;;42.50;;
42866;SDS011;39461;40.948;73.006;2022-10-16T14:33:35;89.47;;;46.30;;
42866;SDS011;39461;40.948;73.006;2022-10-16T14:39:20;99.68;;;46.67;;
42866;SDS011;39461;40.948;73.006;2022-10-16T14:41:57;108.95;;;49.67;;
42866;SDS011;39461;40.948;73.006;2022-10-16T14:44:35;111.68;;;50.78;;
42866;SDS011;39461;40.948;73.006;2022-10-16T14:47:16;107.60;;;50.90;;
42866;SDS011;39461;40.948;73.006;2022-10-16T14:49:56;107.93;;;50.55;;
42866;SDS011;39461;40.948;73.006;2022-10-16T14:52:35;107.15;;;48.65;;
42866;SDS011;39461;40.948;73.006;2022-10-16T14:55:14;98.53;;;48.72;;
42866;SDS011;39461;40.948;73.006;2022-10-16T14:57:51;97.88;;;47.13;;
42866;SDS011;39461;40.948;73.006;2022-10-16T15:00:27;112.10;;;48.15;;
42866;SDS011;39461;40.948;73.006;2022-10-16T15:03:02;90.40;;;45.72;;
42866;SDS011;39461;40.948;73.006;2022-10-16T15:05:43;98.38;;;43.92;;
42866;SDS011;39461;40.948;73.006;2022-10-16T15:08:23;87.22;;;42.03;;
42866;SDS011;39461;40.948;73.006;2022-10-16T15:10:59;87.82;;;36.85;;
42866;SDS011;39461;40.948;73.006;2022-10-16T15:13:38;89.43;;;36.25;;
42866;SDS011;39461;40.948;73.006;2022-10-16T15:16:19;81.75;;;32.30;;
42866;SDS011;39461;40.948;73.006;2022-10-16T15:18:56;79.43;;;30.95;;
42866;SDS011;39461;40.948;73.006;2022-10-16T15:21:32;69.63;;;27.63;;
42866;SDS011;39461;40.948;73.006;2022-10-16T15:24:08;58.85;;;27.25;;
42866;SDS011;39461;40.948;73.006;2022-10-16T15:26:44;62.70;;;27.27;;
42866;SDS011;39461;40.948;73.006;2022-10-16T15:29:25;60.80;;;26.75;;
42866;SDS011;39461;40.948;73.006;2022-10-16T15:32:01;66.22;;;25.65;;
42866;SDS011;39461;40.948;73.006;2022-10-16T15:34:36;57.80;;;25.77;;
42866;SDS011;39461;40.948;73.006;2022-10-16T15:37:14;66.13;;;24.58;;
42866;SDS011;39461;40.948;73.006;2022-10-16T15:39:50;59.22;;;25.20;;
42866;SDS011;39461;40.948;73.006;2022-10-16T15:42:25;59.22;;;25.13;;
42866;SDS011;39461;40.948;73.006;2022-10-16T15:45:03;58.10;;;24.75;;
42866;SDS011;39461;40.948;73.006;2022-10-16T15:50:38;76.35;;;35.03;;
42866;SDS011;39461;40.948;73.006;2022-10-16T15:53:14;63.80;;;29.13;;
42866;SDS011;39461;40.948;73.006;2022-10-16T15:55:48;65.38;;;24.15;;
42866;SDS011;39461;40.948;73.006;2022-10-16T15:58:23;58.83;;;23.98;;
42866;SDS011;39461;40.948;73.006;2022-10-16T16:01:02;51.88;;;23.77;;
42866;SDS011;39461;40.948;73.006;2022-10-16T16:03:41;54.85;;;23.42;;
42866;SDS011;39461;40.948;73.006;2022-10-16T16:06:17;60.40;;;24.60;;
42866;SDS011;39461;40.948;73.006;2022-10-16T16:08:53;60.53;;;22.67;;
42866;SDS011;39461;40.948;73.006;2022-10-16T16:11:26;47.13;;;20.75;;
42866;SDS011;39461;40.948;73.006;2022-10-16T16:13:56;64.57;;;22.23;;
42866;SDS011;39461;40.948;73.006;2022-10-16T16:16:24;50.08;;;21.20;;
42866;SDS011;39461;40.948;73.006;2022-10-16T16:19:02;50.70;;;20.73;;
42866;SDS011;39461;40.948;73.006;2022-10-16T16:21:41;47.65;;;19.83;;
42866;SDS011;39461;40.948;73.006;2022-10-16T16:24:18;43.50;;;18.83;;
42866;SDS011;39461;40.948;73.006;2022-10-16T16:26:47;47.90;;;20.70;;
42866;SDS011;39461;40.948;73.006;2022-10-16T16:29:18;46.45;;;18.92;;
42866;SDS011;39461;40.948;73.006;2022-10-16T16:31:55;50.63;;;19.80;;
42866;SDS011;39461;40.948;73.006;2022-10-16T16:34:30;52.45;;;20.25;;
42866;SDS011;39461;40.948;73.006;2022-10-16T16:37:04;43.80;;;18.98;;
42866;SDS011;39461;40.948;73.006;2022-10-16T16:39:37;48.33;;;19.42;;
42866;SDS011;39461;40.948;73.006;2022-10-16T16:42:19;50.58;;;18.40;;
42866;SDS011;39461;40.948;73.006;2022-10-16T16:44:52;41.40;;;18.13;;
42866;SDS011;39461;40.948;73.006;2022-10-16T16:47:26;40.42;;;19.45;;
42866;SDS011;39461;40.948;73.006;2022-10-16T16:50:04;58.85;;;21.05;;
42866;SDS011;39461;40.948;73.006;2022-10-16T16:55:43;49.08;;;19.58;;
42866;SDS011;39461;40.948;73.006;2022-10-16T16:58:19;42.38;;;19.15;;
42866;SDS011;39461;40.948;73.006;2022-10-16T17:00:47;39.30;;;18.95;;
42866;SDS011;39461;40.948;73.006;2022-10-16T17:03:30;36.60;;;19.00;;
42866;SDS011;39461;40.948;73.006;2022-10-16T17:09:04;40.35;;;18.75;;
42866;SDS011;39461;40.948;73.006;2022-10-16T17:11:41;42.35;;;19.45;;
42866;SDS011;39461;40.948;73.006;2022-10-16T17:20:22;47.58;;;18.02;;
42866;SDS011;39461;40.948;73.006;2022-10-16T17:22:58;41.50;;;17.05;;
42866;SDS011;39461;40.948;73.006;2022-10-16T17:25:35;36.00;;;17.33;;
42866;SDS011;39461;40.948;73.006;2022-10-16T17:28:11;38.05;;;16.83;;
42866;SDS011;39461;40.948;73.006;2022-10-16T17:30:47;36.50;;;16.58;;
42866;SDS011;39461;40.948;73.006;2022-10-16T17:33:20;42.58;;;16.27;;
42866;SDS011;39461;40.948;73.006;2022-10-16T17:35:58;42.03;;;17.23;;
42866;SDS011;39461;40.948;73.006;2022-10-16T17:38:34;41.25;;;16.95;;
42866;SDS011;39461;40.948;73.006;2022-10-16T17:41:10;42.20;;;16.95;;
42866;SDS011;39461;40.948;73.006;2022-10-16T17:43:47;40.05;;;16.17;;
42866;SDS011;39461;40.948;73.006;2022-10-16T17:46:23;29.20;;;14.63;;
42866;SDS011;39461;40.948;73.006;2022-10-16T17:49:01;40.38;;;15.30;;
42866;SDS011;39461;40.948;73.006;2022-10-16T17:51:38;41.85;;;15.10;;